Time;durP1;ratioP1;P1;durP2;ratioP2;P2;SDS_P1;SDS_P2;PMS_P1;PMS_P2;Temp;Humidity;BMP_temperature;BMP_pressure;BME280_temperature;BME280_humidity;BME280_pressure;Samples;Min_cycle;Max_cycle;Signal;HPM_P1;HPM_P2
2023/06/10 00:02:16;;;;;;;32.65;20.08;;;18.00;82.40;;;;;;5076788;28;20036;-90
2023/06/10 00:04:44;;;;;;;32.00;19.58;;;18.00;82.40;;;;;;5076655;28;20032;-89
2023/06/10 00:07:11;;;;;;;36.15;20.10;;;18.00;82.40;;;;;;5076219;28;20494;-89
2023/06/10 00:09:38;;;;;;;37.40;19.80;;;18.00;82.40;;;;;;5076920;28;20054;-90
2023/06/10 00:12:07;;;;;;;40.28;22.95;;;18.00;82.70;;;;;;5076597;28;20043;-89
2023/06/10 00:14:36;;;;;;;34.67;20.50;;;18.00;82.60;;;;;;5092098;28;20054;-89
2023/06/10 00:17:04;;;;;;;37.97;21.48;;;18.00;82.40;;;;;;5076234;28;20050;-90
2023/06/10 00:19:31;;;;;;;40.33;21.98;;;18.00;82.60;;;;;;5076273;28;20048;-89
2023/06/10 00:21:58;;;;;;;42.30;22.80;;;18.00;82.50;;;;;;5092498;28;20432;-90
2023/06/10 00:24:25;;;;;;;38.90;23.20;;;17.90;82.70;;;;;;5093062;28;20055;-90
2023/06/10 00:26:53;;;;;;;37.15;22.42;;;17.90;82.80;;;;;;5076534;28;20079;-89
2023/06/10 00:29:20;;;;;;;45.35;24.63;;;17.90;82.90;;;;;;5093095;28;20121;-89
2023/06/10 00:31:47;;;;;;;41.40;23.52;;;17.90;82.90;;;;;;5093005;28;20048;-90
2023/06/10 00:34:14;;;;;;;46.90;24.23;;;17.80;83.30;;;;;;5075679;28;20047;-90
2023/06/10 00:36:43;;;;;;;40.72;24.00;;;17.90;83.10;;;;;;5076103;28;20100;-90
2023/06/10 00:39:10;;;;;;;47.33;25.23;;;17.80;83.20;;;;;;5093034;28;20064;-90
2023/06/10 00:41:37;;;;;;;46.20;24.30;;;17.80;83.20;;;;;;5092995;28;20082;-89
2023/06/10 00:44:04;;;;;;;54.47;26.25;;;17.90;83.10;;;;;;5090004;28;20050;-90
2023/06/10 00:46:33;;;;;;;48.43;24.23;;;17.90;83.20;;;;;;5075899;28;20067;-90
2023/06/10 00:49:01;;;;;;;47.08;24.23;;;17.80;83.20;;;;;;5075473;28;20131;-89
2023/06/10 00:51:29;;;;;;;48.75;25.13;;;17.80;83.50;;;;;;5093130;28;20032;-89
2023/06/10 00:53:57;;;;;;;47.88;24.98;;;17.70;83.50;;;;;;5091414;28;20048;-90
2023/06/10 00:56:25;;;;;;;45.25;24.08;;;17.70;83.60;;;;;;5090133;28;20032;-90
2023/06/10 00:58:52;;;;;;;50.33;26.23;;;17.80;83.70;;;;;;5092398;28;20397;-90
2023/06/10 01:01:19;;;;;;;47.22;23.70;;;17.80;83.70;;;;;;5076062;28;20062;-90
2023/06/10 01:03:48;;;;;;;50.20;24.73;;;17.80;83.70;;;;;;5075576;28;20102;-90
2023/06/10 01:06:17;;;;;;;50.92;25.17;;;17.80;83.60;;;;;;5075658;28;20036;-90
2023/06/10 01:09:01;;;;;;;51.13;25.05;;;17.80;83.40;;;;;;5091026;28;20457;-90
2023/06/10 01:11:48;;;;;;;52.60;25.67;;;17.90;83.40;;;;;;5073343;28;20437;-90
2023/06/10 01:14:16;;;;;;;66.63;28.70;;;17.90;83.30;;;;;;5090625;28;20067;-90
2023/06/10 01:16:45;;;;;;;54.78;27.25;;;17.90;83.20;;;;;;5074749;28;20481;-90
2023/06/10 01:19:14;;;;;;;51.60;26.15;;;17.90;83.30;;;;;;5075806;28;20051;-90
2023/06/10 01:21:41;;;;;;;55.58;26.17;;;17.80;83.50;;;;;;5091388;28;20066;-89
2023/06/10 01:24:08;;;;;;;59.40;27.57;;;17.80;83.60;;;;;;5075820;28;20490;-90
2023/06/10 01:26:36;;;;;;;59.15;27.15;;;17.80;83.60;;;;;;5092291;28;21261;-90
2023/06/10 01:29:11;;;;;;;52.00;25.98;;;17.80;83.60;;;;;;5075352;28;20497;-90
2023/06/10 01:31:49;;;;;;;61.53;27.13;;;17.80;83.50;;;;;;5090305;28;20067;-90
2023/06/10 01:34:18;;;;;;;48.15;26.23;;;17.80;83.60;;;;;;5075953;28;20131;-90
2023/06/10 01:36:49;;;;;;;51.03;26.40;;;17.80;83.60;;;;;;5070641;28;20127;-89
2023/06/10 01:39:20;;;;;;;63.75;28.45;;;17.80;83.70;;;;;;5075695;28;20131;-90
2023/06/10 01:41:48;;;;;;;61.53;28.30;;;17.80;83.60;;;;;;5075508;28;20036;-90
2023/06/10 01:44:22;;;;;;;55.80;29.13;;;17.90;83.40;;;;;;5092286;28;20036;-89
2023/06/10 01:46:50;;;;;;;58.85;28.90;;;17.90;83.30;;;;;;5124942;28;20044;-89
2023/06/10 01:49:17;;;;;;;61.07;28.30;;;17.90;83.40;;;;;;5075240;28;20035;-90
2023/06/10 01:51:44;;;;;;;63.92;29.70;;;17.90;83.40;;;;;;5075423;28;20044;-89
2023/06/10 01:54:11;;;;;;;61.20;29.65;;;18.00;83.40;;;;;;5073622;28;20055;-90
2023/06/10 01:56:38;;;;;;;63.03;29.65;;;17.90;83.40;;;;;;5075438;28;20067;-90
2023/06/10 01:59:05;;;;;;;60.47;29.52;;;17.90;83.40;;;;;;5092175;28;20047;-90
2023/06/10 02:01:33;;;;;;;57.97;29.40;;;18.00;83.30;;;;;;5091666;28;20040;-90
2023/06/10 02:04:01;;;;;;;60.83;29.33;;;18.00;83.00;;;;;;5074346;28;20119;-90
2023/06/10 02:06:31;;;;;;;55.05;28.48;;;18.00;83.10;;;;;;5092045;28;20490;-90
2023/06/10 02:08:58;;;;;;;62.70;30.25;;;18.00;83.00;;;;;;5073494;28;20054;-90
2023/06/10 02:11:28;;;;;;;60.92;30.65;;;18.00;83.00;;;;;;5074893;28;20060;-89
2023/06/10 02:13:55;;;;;;;68.57;31.97;;;17.90;83.30;;;;;;5073646;28;20079;-90
2023/06/10 02:16:23;;;;;;;58.00;30.48;;;17.90;83.40;;;;;;5075672;28;20040;-89
2023/06/10 02:18:51;;;;;;;61.03;30.27;;;17.90;83.40;;;;;;5093494;28;20035;-90
2023/06/10 02:21:18;;;;;;;65.80;31.42;;;17.90;83.40;;;;;;5095761;28;20039;-90
2023/06/10 02:23:45;;;;;;;63.30;31.08;;;17.90;83.50;;;;;;5078562;28;20036;-90
2023/06/10 02:26:13;;;;;;;69.27;32.53;;;17.90;83.50;;;;;;5078747;28;20047;-90
2023/06/10 02:28:43;;;;;;;72.95;31.88;;;17.80;83.50;;;;;;5077968;28;20080;-90
2023/06/10 02:31:10;;;;;;;60.50;29.98;;;17.90;83.50;;;;;;5095120;28;20450;-89
2023/06/10 02:33:40;;;;;;;70.03;33.55;;;17.90;83.50;;;;;;5112270;28;20073;-90
2023/06/10 02:36:07;;;;;;;60.25;31.77;;;18.00;83.40;;;;;;5094421;28;20052;-90
2023/06/10 02:38:35;;;;;;;60.43;30.87;;;17.90;83.40;;;;;;5091149;28;20040;-90
2023/06/10 02:41:02;;;;;;;61.17;30.95;;;18.00;83.40;;;;;;5095100;28;20667;-90
2023/06/10 02:43:29;;;;;;;71.07;32.85;;;18.00;83.30;;;;;;5078333;28;20127;-90
2023/06/10 02:45:56;;;;;;;63.17;31.75;;;18.00;83.20;;;;;;5078269;28;20125;-90
2023/06/10 02:48:24;;;;;;;55.75;31.27;;;18.00;83.30;;;;;;5078242;28;20101;-90
2023/06/10 02:50:51;;;;;;;58.90;31.43;;;18.00;83.40;;;;;;5094891;28;20036;-90
2023/06/10 02:53:44;;;;;;;53.88;29.05;;;18.00;83.40;;;;;;5085024;28;20036;-89
2023/06/10 02:56:15;;;;;;;56.58;30.02;;;18.00;83.20;;;;;;5078499;28;20036;-90
2023/06/10 02:58:43;;;;;;;50.80;30.08;;;18.10;83.10;;;;;;5109521;28;20085;-90
2023/06/10 03:01:13;;;;;;;53.20;29.52;;;18.10;83.00;;;;;;5086467;28;20039;-90
2023/06/10 03:03:52;;;;;;;49.13;28.97;;;18.10;83.00;;;;;;5092867;28;20040;-90
2023/06/10 03:06:19;;;;;;;49.05;28.98;;;18.10;83.00;;;;;;5094440;28;21046;-90
2023/06/10 03:08:46;;;;;;;48.33;28.50;;;18.10;82.90;;;;;;5076372;28;20040;-90
2023/06/10 03:11:17;;;;;;;44.85;26.83;;;18.10;83.00;;;;;;5106255;28;20040;-90
2023/06/10 03:13:44;;;;;;;47.67;28.80;;;18.10;82.80;;;;;;5071820;28;20040;-90
2023/06/10 03:16:14;;;;;;;48.30;27.67;;;18.10;82.70;;;;;;5104670;28;20059;-90
2023/06/10 03:18:42;;;;;;;51.80;30.15;;;18.20;82.80;;;;;;5088597;28;20040;-90
2023/06/10 03:21:10;;;;;;;52.03;29.70;;;18.10;82.70;;;;;;5107194;28;20046;-90
2023/06/10 03:23:37;;;;;;;52.63;29.50;;;18.20;82.60;;;;;;5077663;28;20412;-90
2023/06/10 03:26:05;;;;;;;49.50;29.00;;;18.10;82.60;;;;;;5090162;28;20067;-90
2023/06/10 03:28:34;;;;;;;56.27;30.87;;;18.20;82.60;;;;;;5078689;28;20056;-90
2023/06/10 03:31:02;;;;;;;46.00;29.33;;;18.20;82.60;;;;;;5077502;28;20039;-89
2023/06/10 03:33:32;;;;;;;47.35;28.83;;;18.20;82.50;;;;;;5094183;28;20482;-89
2023/06/10 03:35:59;;;;;;;60.20;32.95;;;18.20;82.60;;;;;;5109566;28;20490;-90
2023/06/10 03:38:27;;;;;;;51.45;30.73;;;18.20;82.70;;;;;;5110987;28;20054;-90
2023/06/10 03:40:54;;;;;;;52.27;31.10;;;18.10;82.60;;;;;;5077293;28;20070;-90
2023/06/10 03:43:25;;;;;;;56.55;31.50;;;18.10;82.80;;;;;;5109712;28;20543;-90
2023/06/10 03:45:53;;;;;;;51.72;30.70;;;18.10;82.70;;;;;;5093761;28;20085;-90
2023/06/10 03:48:20;;;;;;;58.20;33.70;;;18.10;82.70;;;;;;5077258;28;20040;-90
2023/06/10 03:50:52;;;;;;;55.78;32.75;;;18.10;82.70;;;;;;5077200;28;20063;-90
2023/06/10 03:53:20;;;;;;;52.37;30.70;;;18.00;82.80;;;;;;5077280;28;20047;-90
2023/06/10 03:55:48;;;;;;;57.13;34.22;;;18.00;82.80;;;;;;5076492;28;20040;-90
2023/06/10 03:58:17;;;;;;;62.13;33.22;;;18.00;82.80;;;;;;5093336;28;20484;-90
2023/06/10 04:00:45;;;;;;;66.47;37.00;;;18.00;83.30;;;;;;5093846;28;20064;-90
2023/06/10 04:03:14;;;;;;;64.80;34.28;;;17.90;83.50;;;;;;5093779;28;20117;-90
2023/06/10 04:05:50;;;;;;;57.70;33.07;;;17.90;83.40;;;;;;5077758;28;20036;-90
2023/06/10 04:08:17;;;;;;;61.00;34.30;;;17.90;83.70;;;;;;5094015;28;20043;-90
2023/06/10 04:10:44;;;;;;;59.92;33.70;;;17.90;83.60;;;;;;5090065;28;20032;-90
2023/06/10 04:13:11;;;;;;;63.42;35.30;;;18.00;83.40;;;;;;5093494;28;20476;-90
2023/06/10 04:15:46;;;;;;;66.57;36.38;;;17.90;83.50;;;;;;5077543;28;20066;-90
2023/06/10 04:18:16;;;;;;;55.90;34.57;;;17.90;83.60;;;;;;5093199;28;20124;-89
2023/06/10 04:20:45;;;;;;;65.25;36.85;;;17.80;83.70;;;;;;5076619;28;20051;-90
2023/06/10 04:23:12;;;;;;;62.83;35.55;;;17.80;83.90;;;;;;5075442;28;20040;-89
2023/06/10 04:25:42;;;;;;;67.25;36.25;;;17.80;83.90;;;;;;5093052;28;20109;-90
2023/06/10 04:28:10;;;;;;;70.03;38.78;;;17.80;84.00;;;;;;5075508;28;20051;-90
2023/06/10 04:30:37;;;;;;;64.43;35.90;;;17.80;83.90;;;;;;5076545;28;20494;-90
2023/06/10 04:33:06;;;;;;;59.55;34.28;;;17.80;84.20;;;;;;5076552;28;20044;-90
2023/06/10 04:35:34;;;;;;;63.42;35.10;;;17.80;84.30;;;;;;5089798;28;20040;-90
2023/06/10 04:38:03;;;;;;;62.65;34.42;;;17.80;84.10;;;;;;5092887;28;20105;-90
2023/06/10 04:40:31;;;;;;;68.85;36.53;;;17.90;83.80;;;;;;5092331;28;20461;-90
2023/06/10 04:42:59;;;;;;;57.60;34.47;;;17.90;83.70;;;;;;5076338;28;20036;-90
2023/06/10 04:45:26;;;;;;;59.88;34.97;;;18.00;83.80;;;;;;5076114;28;20387;-90
2023/06/10 04:47:55;;;;;;;70.18;35.65;;;18.00;83.60;;;;;;5092765;28;20562;-90
2023/06/10 04:50:22;;;;;;;68.45;37.05;;;18.10;83.50;;;;;;5074877;28;20051;-90
2023/06/10 04:52:49;;;;;;;66.63;36.17;;;18.00;83.50;;;;;;5074445;28;20052;-90
2023/06/10 04:55:17;;;;;;;63.13;34.00;;;18.10;83.40;;;;;;5075945;28;20040;-90
2023/06/10 04:57:44;;;;;;;58.47;34.15;;;18.10;83.50;;;;;;5075881;28;20043;-90
2023/06/10 05:00:12;;;;;;;59.67;34.10;;;18.10;83.50;;;;;;5106973;28;20046;-90
2023/06/10 05:02:39;;;;;;;57.83;33.50;;;18.10;83.40;;;;;;5091970;28;20036;-90
2023/06/10 05:05:06;;;;;;;60.90;33.95;;;18.10;83.30;;;;;;5091094;28;20079;-90
2023/06/10 05:07:34;;;;;;;55.67;32.27;;;18.10;83.50;;;;;;5092494;28;20559;-90
2023/06/10 05:10:01;;;;;;;59.53;34.92;;;18.10;83.30;;;;;;5108093;27;20052;-90
2023/06/10 05:12:28;;;;;;;55.33;32.63;;;18.10;83.30;;;;;;5075740;28;20052;-90
2023/06/10 05:14:55;;;;;;;59.70;36.17;;;18.10;83.40;;;;;;5107454;28;20050;-90
2023/06/10 05:17:22;;;;;;;53.35;32.88;;;18.20;83.30;;;;;;5075416;28;20048;-90
2023/06/10 05:19:50;;;;;;;57.00;32.83;;;18.20;83.40;;;;;;5074987;28;20040;-90
2023/06/10 05:22:17;;;;;;;59.40;34.85;;;18.20;83.60;;;;;;5092117;28;20047;-90
2023/06/10 05:24:45;;;;;;;63.25;34.88;;;18.20;83.60;;;;;;5089091;28;20123;-90
2023/06/10 05:27:12;;;;;;;62.13;33.95;;;18.10;84.00;;;;;;5092164;28;20052;-90
2023/06/10 05:29:39;;;;;;;60.53;33.33;;;18.00;84.20;;;;;;5092095;28;20048;-90
2023/06/10 05:32:07;;;;;;;62.77;33.17;;;18.00;84.10;;;;;;5108287;28;20078;-90
2023/06/10 05:34:35;;;;;;;53.58;28.73;;;18.00;84.50;;;;;;5075263;28;20066;-91
2023/06/10 05:37:02;;;;;;;65.72;33.20;;;18.00;84.20;;;;;;5075476;28;20135;-90
2023/06/10 05:39:29;;;;;;;61.97;35.63;;;17.90;85.00;;;;;;5091347;28;20040;-90
2023/06/10 05:41:59;;;;;;;61.35;32.50;;;17.90;85.20;;;;;;5075609;28;20074;-90
2023/06/10 05:44:26;;;;;;;55.67;31.90;;;17.90;85.10;;;;;;5092046;28;20094;-90
2023/06/10 05:46:53;;;;;;;60.60;32.15;;;17.90;85.30;;;;;;5075554;28;20401;-91
2023/06/10 05:49:20;;;;;;;56.50;32.92;;;18.00;85.10;;;;;;5075188;28;20063;-90
2023/06/10 05:51:47;;;;;;;55.22;31.98;;;18.00;84.70;;;;;;5091599;28;20055;-90
2023/06/10 05:54:14;;;;;;;53.53;30.83;;;18.00;84.80;;;;;;5075898;28;20043;-91
2023/06/10 05:56:41;;;;;;;59.00;33.00;;;18.10;84.70;;;;;;5079608;28;20044;-91
2023/06/10 05:59:08;;;;;;;55.53;33.67;;;18.00;84.70;;;;;;5076759;28;20468;-91
2023/06/10 06:01:36;;;;;;;56.78;33.70;;;18.10;84.90;;;;;;5078253;28;20036;-90
2023/06/10 06:04:03;;;;;;;58.97;33.97;;;18.10;84.80;;;;;;5077012;28;20044;-91
2023/06/10 06:06:30;;;;;;;60.13;34.50;;;18.10;84.80;;;;;;5078870;28;20047;-91
2023/06/10 06:08:57;;;;;;;59.23;34.53;;;18.10;85.00;;;;;;5079182;28;20075;-91
2023/06/10 06:11:25;;;;;;;55.95;34.10;;;18.20;84.80;;;;;;5095649;28;20063;-90
2023/06/10 06:13:53;;;;;;;58.08;33.80;;;18.20;84.30;;;;;;5090589;28;20075;-90
2023/06/10 06:16:20;;;;;;;50.03;31.38;;;18.20;84.60;;;;;;5078139;28;20044;-90
2023/06/10 06:18:47;;;;;;;52.28;33.13;;;18.30;84.70;;;;;;5111315;28;20041;-90
2023/06/10 06:21:14;;;;;;;51.80;32.07;;;18.30;84.30;;;;;;5078107;28;20051;-90
2023/06/10 06:23:41;;;;;;;55.22;32.72;;;18.30;84.30;;;;;;5094504;28;20036;-90
2023/06/10 06:26:08;;;;;;;56.75;33.60;;;18.40;84.50;;;;;;5078824;28;20504;-90
2023/06/10 06:28:35;;;;;;;48.95;31.45;;;18.50;84.40;;;;;;5078422;28;20052;-90
2023/06/10 06:31:03;;;;;;;51.60;33.08;;;18.50;84.60;;;;;;5095217;28;20044;-90
2023/06/10 06:33:30;;;;;;;48.77;30.40;;;18.50;84.40;;;;;;5095063;28;20054;-90
2023/06/10 06:35:57;;;;;;;46.97;30.65;;;18.50;83.70;;;;;;5078590;28;20511;-91
2023/06/10 06:38:24;;;;;;;48.35;31.35;;;18.50;83.70;;;;;;5095364;28;20044;-93
2023/06/10 06:40:51;;;;;;;47.08;30.40;;;18.50;83.80;;;;;;5078505;28;20047;-90
2023/06/10 06:43:18;;;;;;;47.28;31.20;;;18.60;84.10;;;;;;5091687;28;20480;-90
2023/06/10 06:46:04;;;;;;;43.80;28.13;;;18.60;83.80;;;;;;5093392;28;20421;-90
2023/06/10 06:48:31;;;;;;;46.53;30.10;;;18.70;84.00;;;;;;5094781;28;20054;-90
2023/06/10 06:50:58;;;;;;;43.35;27.27;;;18.90;83.80;;;;;;5092963;28;20039;-90
2023/06/10 06:53:25;;;;;;;42.00;27.17;;;19.00;83.50;;;;;;5090959;28;20136;-89
2023/06/10 06:55:56;;;;;;;35.88;25.70;;;19.10;83.20;;;;;;5078538;28;20051;-91
2023/06/10 06:58:23;;;;;;;38.83;24.97;;;19.20;82.30;;;;;;5078041;28;20408;-90
2023/06/10 07:00:50;;;;;;;38.28;25.38;;;19.30;82.30;;;;;;5110772;28;20094;-90
2023/06/10 07:03:18;;;;;;;37.30;25.40;;;19.40;82.20;;;;;;5075299;28;20068;-90
2023/06/10 07:05:45;;;;;;;37.33;25.50;;;19.40;81.70;;;;;;5077818;28;20040;-89
2023/06/10 07:08:13;;;;;;;34.83;24.75;;;19.30;82.10;;;;;;5072934;28;20135;-90
2023/06/10 07:10:41;;;;;;;34.97;24.03;;;19.40;81.90;;;;;;5078197;28;20044;-90
2023/06/10 07:13:08;;;;;;;33.67;24.95;;;19.50;81.40;;;;;;5077070;28;20082;-90
2023/06/10 07:15:35;;;;;;;37.53;23.92;;;19.60;80.90;;;;;;5074066;28;20139;-90
2023/06/10 07:18:02;;;;;;;35.92;23.35;;;19.60;81.00;;;;;;5077923;28;20035;-90
2023/06/10 07:20:29;;;;;;;35.20;23.98;;;19.60;80.80;;;;;;5077000;28;20539;-91
2023/06/10 07:22:56;;;;;;;34.67;24.13;;;19.60;80.80;;;;;;5093090;28;20036;-90
2023/06/10 07:25:23;;;;;;;34.63;23.80;;;19.60;80.80;;;;;;5093676;28;20040;-90
2023/06/10 07:27:50;;;;;;;35.10;23.98;;;19.60;80.60;;;;;;5075992;28;20151;-91
2023/06/10 07:30:17;;;;;;;34.42;22.88;;;19.70;81.10;;;;;;5076216;28;20093;-90
2023/06/10 07:32:44;;;;;;;33.85;23.02;;;19.80;80.90;;;;;;5106854;28;20048;-90
2023/06/10 07:35:12;;;;;;;31.10;21.30;;;20.10;80.10;;;;;;5072410;28;20131;-90
2023/06/10 07:37:39;;;;;;;31.38;20.15;;;20.20;79.80;;;;;;5076720;28;20497;-90
2023/06/10 07:40:07;;;;;;;28.00;20.42;;;20.20;78.80;;;;;;5077560;28;20040;-90
2023/06/10 07:42:36;;;;;;;29.27;19.80;;;20.30;79.00;;;;;;5077409;28;20040;-90
2023/06/10 07:45:04;;;;;;;28.50;18.95;;;20.30;78.60;;;;;;5076187;28;20044;-90
2023/06/10 07:47:33;;;;;;;26.93;17.67;;;20.40;78.30;;;;;;5094126;28;20050;-90
2023/06/10 07:50:00;;;;;;;23.85;16.40;;;20.30;78.00;;;;;;5077365;28;20040;-91
2023/06/10 07:52:28;;;;;;;25.48;16.45;;;20.10;78.20;;;;;;5093957;28;20036;-91
2023/06/10 07:54:55;;;;;;;25.60;17.80;;;20.10;78.40;;;;;;5093870;28;20032;-90
2023/06/10 07:57:22;;;;;;;22.88;15.60;;;20.10;78.60;;;;;;5077259;28;20048;-90
2023/06/10 07:59:49;;;;;;;24.77;17.03;;;20.10;78.40;;;;;;5077203;28;20093;-90
2023/06/10 08:02:16;;;;;;;24.27;15.80;;;20.00;78.90;;;;;;5076998;28;20040;-90
2023/06/10 08:04:44;;;;;;;22.02;15.65;;;20.00;78.40;;;;;;5092610;28;20060;-90
2023/06/10 08:07:11;;;;;;;23.73;16.35;;;20.00;78.60;;;;;;5076690;28;20097;-91
2023/06/10 08:09:38;;;;;;;23.50;16.27;;;20.00;78.50;;;;;;5110421;28;20040;-90
2023/06/10 08:12:07;;;;;;;25.93;15.60;;;19.90;78.50;;;;;;5076607;28;20135;-90
2023/06/10 08:14:38;;;;;;;23.75;17.05;;;19.80;78.40;;;;;;5093422;28;20047;-90
2023/06/10 08:17:06;;;;;;;25.27;17.45;;;19.80;79.50;;;;;;5075622;28;20050;-90
2023/06/10 08:19:33;;;;;;;24.23;16.17;;;20.00;79.70;;;;;;5076430;28;20044;-90
2023/06/10 08:22:00;;;;;;;25.45;16.00;;;20.50;78.80;;;;;;5093482;28;20051;-94
2023/06/10 08:24:27;;;;;;;24.77;16.00;;;20.90;77.50;;;;;;5093599;28;20127;-92
2023/06/10 08:26:57;;;;;;;23.88;15.85;;;21.20;76.10;;;;;;5076683;28;20046;-92
2023/06/10 08:29:25;;;;;;;23.60;17.15;;;21.20;75.00;;;;;;5073780;28;20574;-92
2023/06/10 08:31:52;;;;;;;24.35;17.85;;;21.10;75.60;;;;;;5090852;28;20040;-92
2023/06/10 08:34:19;;;;;;;24.25;16.52;;;21.20;75.80;;;;;;5106201;28;20047;-92
2023/06/10 08:36:46;;;;;;;24.53;17.97;;;21.30;77.40;;;;;;5076646;28;20139;-92
2023/06/10 08:39:14;;;;;;;24.63;17.08;;;21.10;76.00;;;;;;5084218;28;20044;-92
2023/06/10 08:41:46;;;;;;;25.63;16.40;;;21.10;76.50;;;;;;5104372;28;20039;-92
2023/06/10 08:44:22;;;;;;;24.77;15.93;;;21.00;75.90;;;;;;5076981;28;20047;-92
2023/06/10 08:46:49;;;;;;;24.73;16.52;;;20.80;76.20;;;;;;5076634;28;20482;-91
2023/06/10 08:49:21;;;;;;;25.07;16.97;;;20.60;76.40;;;;;;5074898;28;20126;-91
2023/06/10 08:51:50;;;;;;;24.40;16.73;;;20.60;76.50;;;;;;5106675;28;20040;-91
2023/06/10 08:54:21;;;;;;;25.95;16.23;;;20.50;77.40;;;;;;5091024;28;20122;-91
2023/06/10 08:56:51;;;;;;;24.10;16.38;;;20.50;77.20;;;;;;5090566;28;20040;-91
2023/06/10 08:59:19;;;;;;;24.55;15.80;;;20.60;77.70;;;;;;5073300;28;20514;-91
2023/06/10 09:01:48;;;;;;;24.33;16.20;;;20.70;77.50;;;;;;5092114;28;20127;-91
2023/06/10 09:04:17;;;;;;;24.77;15.95;;;20.80;77.00;;;;;;5075896;28;20064;-91
2023/06/10 09:06:46;;;;;;;20.77;13.93;;;21.10;76.40;;;;;;5074496;28;20044;-90
2023/06/10 09:09:15;;;;;;;20.70;13.60;;;21.50;75.50;;;;;;5075678;28;20455;-91
2023/06/10 09:11:45;;;;;;;18.73;12.70;;;21.60;73.40;;;;;;5108232;28;20056;-90
2023/06/10 09:14:14;;;;;;;19.13;12.50;;;21.50;73.70;;;;;;5091818;28;20075;-91
2023/06/10 09:16:42;;;;;;;18.40;13.05;;;21.30;73.60;;;;;;5075704;28;20074;-90
2023/06/10 09:19:11;;;;;;;21.10;13.75;;;21.10;74.40;;;;;;5076278;28;20444;-91
2023/06/10 09:21:40;;;;;;;17.65;12.90;;;21.10;74.60;;;;;;5076367;28;20060;-91
2023/06/10 09:24:07;;;;;;;19.65;13.10;;;21.10;75.60;;;;;;5075150;28;20119;-91
2023/06/10 09:26:34;;;;;;;19.50;13.67;;;21.30;74.70;;;;;;5092154;28;20040;-91
2023/06/10 09:29:06;;;;;;;21.95;14.98;;;21.50;74.30;;;;;;5076124;28;20105;-91
2023/06/10 09:31:35;;;;;;;20.95;14.43;;;21.60;74.10;;;;;;5092493;28;20071;-91
2023/06/10 09:34:08;;;;;;;20.38;13.63;;;21.80;72.90;;;;;;5074853;28;20044;-91
2023/06/10 09:36:36;;;;;;;26.08;15.25;;;21.60;73.70;;;;;;5092595;28;20503;-91
2023/06/10 09:39:03;;;;;;;21.60;14.60;;;21.60;74.00;;;;;;5078166;28;20057;-91
2023/06/10 09:41:40;;;;;;;19.55;13.10;;;21.60;74.30;;;;;;5092488;28;20036;-90
2023/06/10 09:44:21;;;;;;;16.60;12.65;;;21.80;73.40;;;;;;5075776;28;20371;-89
2023/06/10 09:46:50;;;;;;;18.75;10.88;;;21.80;71.70;;;;;;5102695;28;20041;-89
2023/06/10 09:49:18;;;;;;;15.02;10.10;;;21.70;72.00;;;;;;5071481;28;20097;-89
2023/06/10 09:51:52;;;;;;;13.03;9.90;;;21.80;71.20;;;;;;5103276;28;20420;-90
2023/06/10 09:54:21;;;;;;;15.38;9.70;;;21.90;71.50;;;;;;5086066;28;20036;-89
2023/06/10 09:56:51;;;;;;;14.88;8.85;;;22.20;73.10;;;;;;5074263;28;20806;-90
2023/06/10 09:59:31;;;;;;;14.93;9.40;;;22.40;68.70;;;;;;5090188;28;20135;-89
2023/06/10 10:02:00;;;;;;;14.80;8.13;;;22.40;68.70;;;;;;5119803;28;20382;-88
2023/06/10 10:04:28;;;;;;;12.23;7.73;;;22.60;70.30;;;;;;5073451;28;20047;-90
2023/06/10 10:06:56;;;;;;;12.95;8.27;;;22.60;66.40;;;;;;5104421;28;20044;-89
2023/06/10 10:09:23;;;;;;;19.88;8.85;;;22.90;66.60;;;;;;5066739;28;20131;-90
2023/06/10 10:11:51;;;;;;;12.57;8.95;;;22.90;67.10;;;;;;5073273;28;20040;-89
2023/06/10 10:14:25;;;;;;;12.38;8.93;;;22.60;68.30;;;;;;5070162;28;20080;-90
2023/06/10 10:16:54;;;;;;;11.23;8.23;;;22.50;68.30;;;;;;5087387;28;20044;-89
2023/06/10 10:19:30;;;;;;;12.38;8.20;;;22.10;67.50;;;;;;5097933;28;20033;-89
2023/06/10 10:22:15;;;;;;;11.07;7.95;;;22.10;68.30;;;;;;5091219;28;20040;-89
2023/06/10 10:24:55;;;;;;;11.85;6.68;;;22.30;68.00;;;;;;5072634;28;20032;-89
2023/06/10 10:27:44;;;;;;;11.93;7.55;;;22.40;66.40;;;;;;5087689;28;20060;-89
2023/06/10 10:30:14;;;;;;;12.73;7.67;;;22.30;67.40;;;;;;5075278;28;20076;-89
2023/06/10 10:33:03;;;;;;;9.93;6.93;;;22.20;68.20;;;;;;5103077;28;20044;-89
2023/06/10 10:35:34;;;;;;;12.90;7.60;;;22.20;66.80;;;;;;5074454;28;20105;-89
2023/06/10 10:38:07;;;;;;;11.70;7.97;;;22.30;67.50;;;;;;5077881;28;20072;-89
2023/06/10 10:40:36;;;;;;;12.55;7.78;;;22.50;66.90;;;;;;5089409;28;20440;-89
2023/06/10 10:43:04;;;;;;;12.57;8.67;;;22.60;66.50;;;;;;5092947;28;20036;-90
2023/06/10 10:45:34;;;;;;;13.48;8.95;;;22.60;67.10;;;;;;5095013;28;20044;-89
2023/06/10 10:48:09;;;;;;;13.90;8.18;;;22.60;66.30;;;;;;5083802;28;20119;-89
2023/06/10 10:50:38;;;;;;;14.32;8.32;;;22.60;66.80;;;;;;5086613;28;20486;-90
2023/06/10 10:53:09;;;;;;;12.52;9.05;;;22.80;66.30;;;;;;5078145;28;20083;-90
2023/06/10 10:55:40;;;;;;;12.43;9.03;;;23.10;66.00;;;;;;5092948;28;20036;-89
2023/06/10 10:58:16;;;;;;;13.45;8.80;;;23.40;63.80;;;;;;5079578;28;20067;-89
2023/06/10 11:00:48;;;;;;;13.60;8.13;;;23.50;64.30;;;;;;5104219;28;20062;-89
2023/06/10 11:03:17;;;;;;;12.20;9.30;;;23.60;64.30;;;;;;5091829;28;20114;-89
2023/06/10 11:05:58;;;;;;;14.88;9.27;;;23.60;63.30;;;;;;5089938;28;20032;-90
2023/06/10 11:08:31;;;;;;;13.77;9.57;;;23.60;63.90;;;;;;5078188;28;20051;-90
2023/06/10 11:10:58;;;;;;;14.90;9.00;;;23.50;64.10;;;;;;5093553;28;20074;-89
2023/06/10 11:13:27;;;;;;;12.73;8.85;;;23.50;63.40;;;;;;5076356;28;20048;-89
2023/06/10 11:15:57;;;;;;;12.57;8.73;;;23.50;64.90;;;;;;5087187;28;20043;-89
2023/06/10 11:18:26;;;;;;;12.80;8.57;;;23.70;64.20;;;;;;5077764;28;20048;-89
2023/06/10 11:21:00;;;;;;;14.83;8.67;;;23.80;63.00;;;;;;5077843;28;20051;-89
2023/06/10 11:23:28;;;;;;;12.10;7.95;;;23.80;63.00;;;;;;5094651;28;20036;-89
2023/06/10 11:26:13;;;;;;;11.95;8.23;;;23.90;63.60;;;;;;5083816;28;20135;-89
2023/06/10 11:28:47;;;;;;;11.65;7.80;;;24.00;62.40;;;;;;5111160;27;20432;-89
2023/06/10 11:31:23;;;;;;;13.95;7.97;;;24.30;63.90;;;;;;5092636;28;20059;-90
2023/06/10 11:34:06;;;;;;;15.20;8.17;;;24.40;60.50;;;;;;5094630;28;20055;-89
2023/06/10 11:36:36;;;;;;;12.00;8.23;;;24.50;61.30;;;;;;5069494;28;20048;-89
2023/06/10 11:39:05;;;;;;;14.52;7.75;;;24.60;60.00;;;;;;5094473;28;20054;-89
2023/06/10 11:41:34;;;;;;;13.07;8.07;;;24.60;60.20;;;;;;5088959;28;20043;-90
2023/06/10 11:44:12;;;;;;;12.65;7.80;;;24.60;59.80;;;;;;5094089;28;20063;-90
2023/06/10 11:46:49;;;;;;;10.43;7.60;;;24.40;60.10;;;;;;5090684;28;20497;-90
2023/06/10 11:49:17;;;;;;;11.20;7.85;;;24.30;59.90;;;;;;5091496;28;20048;-89
2023/06/10 11:51:49;;;;;;;13.40;8.43;;;24.60;60.70;;;;;;5077262;28;20058;-90
2023/06/10 11:54:17;;;;;;;11.68;7.78;;;24.80;58.80;;;;;;5110915;28;20116;-90
2023/06/10 11:56:45;;;;;;;15.63;7.85;;;24.80;60.40;;;;;;5094105;28;20036;-89
2023/06/10 11:59:13;;;;;;;13.90;7.47;;;24.60;58.90;;;;;;5093587;28;20040;-89
2023/06/10 12:01:45;;;;;;;10.00;7.30;;;24.50;59.50;;;;;;5077422;28;20516;-89
2023/06/10 12:04:15;;;;;;;12.27;7.90;;;24.10;61.00;;;;;;5093995;28;20035;-91
2023/06/10 12:06:51;;;;;;;11.02;7.32;;;24.10;60.00;;;;;;5108585;28;20060;-90
2023/06/10 12:09:29;;;;;;;12.38;7.93;;;23.90;61.50;;;;;;5093893;28;20495;-90
2023/06/10 12:12:02;;;;;;;12.33;8.10;;;23.80;62.40;;;;;;5075825;28;20517;-90
2023/06/10 12:14:58;;;;;;;10.13;6.82;;;23.60;62.80;;;;;;5094096;28;20075;-89
2023/06/10 12:17:31;;;;;;;9.20;5.60;;;23.30;64.90;;;;;;5073628;28;20048;-89
2023/06/10 12:20:05;;;;;;;12.40;5.57;;;22.60;65.80;;;;;;5087238;28;20052;-89
2023/06/10 12:22:40;;;;;;;11.43;5.65;;;22.10;68.10;;;;;;5077008;28;20486;-90
2023/06/10 12:25:08;;;;;;;12.50;5.73;;;21.90;69.50;;;;;;5076874;28;20044;-89
2023/06/10 12:27:38;;;;;;;13.25;6.25;;;22.00;70.30;;;;;;5093628;28;20044;-89
2023/06/10 12:30:08;;;;;;;11.52;5.90;;;21.80;70.90;;;;;;5077114;28;20650;-90
2023/06/10 12:32:43;;;;;;;10.40;6.20;;;21.50;71.10;;;;;;5076915;28;20044;-89
2023/06/10 12:35:12;;;;;;;11.68;5.90;;;21.60;72.00;;;;;;5106436;28;20044;-90
2023/06/10 12:37:42;;;;;;;10.67;5.73;;;21.90;71.40;;;;;;5093416;28;20052;-90
2023/06/10 12:40:10;;;;;;;11.88;6.00;;;21.90;71.30;;;;;;5076275;28;20036;-90